createdAt,value
2022-10-22T00:00:29.041Z,20.00
2022-10-22T00:05:32.580Z,19.93
2022-10-22T00:10:37.969Z,19.92
2022-10-22T00:15:42.506Z,19.45
2022-10-22T00:20:46.099Z,18.99
2022-10-22T00:25:49.662Z,18.75
2022-10-22T00:30:59.186Z,18.53
2022-10-22T00:36:02.758Z,18.39
2022-10-22T00:41:06.927Z,18.06
2022-10-22T00:46:12.103Z,17.84
2022-10-22T00:51:15.825Z,17.62
2022-10-22T00:56:19.696Z,17.65
2022-10-22T01:01:27.677Z,17.67
2022-10-22T01:06:33.606Z,17.53
2022-10-22T01:11:47.447Z,17.24
2022-10-22T01:17:05.688Z,17.37
2022-10-22T01:22:18.080Z,17.38
2022-10-22T01:27:32.485Z,17.29
2022-10-22T01:32:42.244Z,17.02
2022-10-22T01:37:49.775Z,16.98
2022-10-22T01:43:00.894Z,16.95
2022-10-22T01:48:20.390Z,16.91
2022-10-22T01:53:33.562Z,16.83
2022-10-22T01:58:45.672Z,16.76
2022-10-22T02:03:57.277Z,16.75
2022-10-22T02:09:03.328Z,16.62
2022-10-22T02:14:09.923Z,16.45
2022-10-22T02:19:20.501Z,16.40
2022-10-22T02:24:25.139Z,16.37
2022-10-22T02:29:34.190Z,16.36
2022-10-22T02:34:39.569Z,16.32
2022-10-22T02:39:43.440Z,16.20
2022-10-22T02:44:46.977Z,16.06
2022-10-22T02:49:52.155Z,15.97
2022-10-22T02:54:55.745Z,16.00
2022-10-22T02:59:59.319Z,15.96
2022-10-22T03:05:04.594Z,16.12
2022-10-22T03:10:09.038Z,16.13
2022-10-22T03:15:12.622Z,16.18
2022-10-22T03:20:18.025Z,16.18
2022-10-22T03:25:24.956Z,16.14
2022-10-22T03:30:28.556Z,16.14
2022-10-22T03:35:37.131Z,16.09
2022-10-22T03:40:41.474Z,15.85
2022-10-22T03:45:45.040Z,15.92
2022-10-22T03:50:51.130Z,15.97
2022-10-22T03:55:54.691Z,15.96
2022-10-22T04:00:58.286Z,15.77
2022-10-22T04:06:12.120Z,15.72
2022-10-22T04:11:17.356Z,15.72
2022-10-22T04:16:25.006Z,15.72
2022-10-22T04:21:32.751Z,15.69
2022-10-22T04:26:36.311Z,15.75
2022-10-22T04:31:39.852Z,15.77
2022-10-22T04:36:45.025Z,15.73
2022-10-22T04:41:48.643Z,15.74
2022-10-22T04:46:52.183Z,15.54
2022-10-22T04:51:57.407Z,15.54
2022-10-22T04:57:00.974Z,15.59
2022-10-22T05:02:04.524Z,15.56
2022-10-22T05:07:09.657Z,15.53
2022-10-22T05:12:13.176Z,15.49
2022-10-22T05:17:16.688Z,15.53
2022-10-22T05:22:21.862Z,15.44
2022-10-22T05:27:25.473Z,15.51
2022-10-22T05:32:29.010Z,15.48
2022-10-22T05:37:34.183Z,15.49
2022-10-22T05:42:37.890Z,15.40
2022-10-22T05:47:41.652Z,15.27
2022-10-22T05:52:46.864Z,15.24
2022-10-22T05:57:50.403Z,15.17
2022-10-22T06:02:53.907Z,15.21
2022-10-22T06:08:00.007Z,15.22
2022-10-22T06:13:03.552Z,15.21
2022-10-22T06:18:07.125Z,15.16
2022-10-22T06:23:12.313Z,15.10
2022-10-22T06:28:15.866Z,15.05
2022-10-22T06:33:19.435Z,14.92
2022-10-22T06:38:24.621Z,14.85
2022-10-22T06:43:29.244Z,14.84
2022-10-22T06:48:32.861Z,14.82
2022-10-22T06:53:38.495Z,14.92
2022-10-22T06:58:42.260Z,14.96
2022-10-22T07:03:46.158Z,14.85
2022-10-22T07:08:51.983Z,14.88
2022-10-22T07:13:55.336Z,14.82
2022-10-22T07:18:58.944Z,14.73
2022-10-22T07:24:04.232Z,14.79
2022-10-22T07:29:07.776Z,14.78
2022-10-22T07:34:11.500Z,14.67
2022-10-22T07:39:16.669Z,14.58
2022-10-22T07:44:20.337Z,14.60
2022-10-22T07:49:24.049Z,14.57
2022-10-22T07:54:30.632Z,14.50
2022-10-22T07:59:34.308Z,14.65
2022-10-22T08:04:38.181Z,14.58
2022-10-22T08:09:43.488Z,14.75
2022-10-22T08:14:47.138Z,15.15
2022-10-22T08:19:51.403Z,15.49
2022-10-22T08:24:56.677Z,15.75
2022-10-22T08:30:00.343Z,15.87
2022-10-22T08:35:04.171Z,15.92
2022-10-22T08:40:14.463Z,15.99
2022-10-22T08:45:23.621Z,16.07
2022-10-22T08:50:34.530Z,16.15
2022-10-22T08:55:40.639Z,16.25
2022-10-22T09:00:47.196Z,16.34
2022-10-22T09:06:02.542Z,16.40
2022-10-22T09:11:19.729Z,16.49
2022-10-22T09:16:34.724Z,16.55
2022-10-22T09:21:47.135Z,16.58
2022-10-22T09:26:53.235Z,16.67
2022-10-22T09:31:56.761Z,16.73
2022-10-22T09:37:01.479Z,16.77
2022-10-22T09:42:07.447Z,16.84
2022-10-22T09:47:42.663Z,16.87
2022-10-22T09:52:54.962Z,16.85
2022-10-22T09:58:02.266Z,16.87
2022-10-22T10:03:05.862Z,16.85
2022-10-22T10:08:15.038Z,16.85
2022-10-22T10:13:43.135Z,16.83
2022-10-22T10:19:02.496Z,16.82
2022-10-22T10:24:15.370Z,16.78
2022-10-22T10:34:49.892Z,16.77
2022-10-22T10:40:18.265Z,16.77
2022-10-22T10:45:31.264Z,16.73
2022-10-22T10:50:42.099Z,16.73
2022-10-22T10:55:58.765Z,16.74
2022-10-22T11:01:13.478Z,16.71
2022-10-22T11:06:23.046Z,16.74
2022-10-22T11:11:35.421Z,16.76
2022-10-22T11:16:45.717Z,16.78
2022-10-22T11:21:56.630Z,16.73
2022-10-22T11:27:07.542Z,16.77
2022-10-22T11:32:18.298Z,16.76
2022-10-22T11:37:23.561Z,16.78
2022-10-22T11:42:36.158Z,16.67
2022-10-22T11:48:06.942Z,16.69
2022-10-22T11:53:21.599Z,16.66
2022-10-22T11:58:33.208Z,16.67
2022-10-22T12:03:43.134Z,16.73
2022-10-22T12:08:51.908Z,16.75
2022-10-22T12:14:04.758Z,16.71
2022-10-22T12:19:15.934Z,16.67
2022-10-22T12:24:21.795Z,16.60
2022-10-22T12:29:24.578Z,16.61
2022-10-22T12:34:29.743Z,16.53
2022-10-22T12:39:33.320Z,16.49
2022-10-22T12:44:36.889Z,16.46
2022-10-22T12:49:46.829Z,16.46
2022-10-22T12:54:52.601Z,16.45
2022-10-22T12:59:55.611Z,16.44
2022-10-22T13:05:25.398Z,16.49
2022-10-22T13:10:33.599Z,16.47
2022-10-22T13:15:39.854Z,16.44
2022-10-22T13:20:54.911Z,16.44
2022-10-22T13:26:04.401Z,16.44
2022-10-22T13:31:16.377Z,16.50
2022-10-22T13:36:23.137Z,16.52
2022-10-22T13:41:27.983Z,16.55
2022-10-22T13:46:32.525Z,16.54
2022-10-22T13:51:37.714Z,16.49
2022-10-22T13:56:41.260Z,16.49
2022-10-22T14:01:46.460Z,16.48
2022-10-22T14:06:51.646Z,16.53
2022-10-22T14:11:55.210Z,16.48
2022-10-22T14:16:58.749Z,16.41
2022-10-22T14:22:04.072Z,16.31
2022-10-22T14:27:07.588Z,16.28
2022-10-22T14:32:15.410Z,16.20
2022-10-22T14:37:21.467Z,16.15
2022-10-22T14:42:26.174Z,16.02
2022-10-22T14:47:29.684Z,15.99
2022-10-22T14:52:34.915Z,15.94
2022-10-22T14:57:38.825Z,16.04
2022-10-22T15:02:42.844Z,15.99
2022-10-22T15:07:48.400Z,16.04
2022-10-22T15:12:51.965Z,16.15
2022-10-22T15:17:55.486Z,16.24
2022-10-22T15:23:00.669Z,16.40
2022-10-22T15:28:09.510Z,16.53
2022-10-22T15:33:13.594Z,16.80
2022-10-22T15:38:19.024Z,17.10
2022-10-22T15:43:22.620Z,17.04
2022-10-22T15:48:26.129Z,17.12
2022-10-22T15:53:31.295Z,17.15
2022-10-22T15:58:34.872Z,17.42
2022-10-22T16:03:38.993Z,17.74
2022-10-22T16:08:44.287Z,17.88
2022-10-22T16:13:47.875Z,17.99
2022-10-22T16:18:51.553Z,18.09
2022-10-22T16:23:56.788Z,18.05
2022-10-22T16:29:00.587Z,18.00
2022-10-22T16:34:04.116Z,18.07
2022-10-22T16:39:09.312Z,18.17
2022-10-22T16:44:12.846Z,18.44
2022-10-22T16:49:16.461Z,18.58
2022-10-22T16:54:21.700Z,18.83
2022-10-22T16:59:25.388Z,18.96
2022-10-22T17:04:28.901Z,18.97
2022-10-22T17:09:34.061Z,19.15
2022-10-22T17:14:37.805Z,19.44
2022-10-22T17:19:41.374Z,19.60
2022-10-22T17:24:46.545Z,19.97
2022-10-22T17:29:50.204Z,20.22
2022-10-22T17:34:53.733Z,20.53
2022-10-22T17:39:58.924Z,20.57
2022-10-22T17:45:02.478Z,20.58
2022-10-22T17:50:06.514Z,20.78
2022-10-22T17:55:13.856Z,20.67
2022-10-22T18:05:21.207Z,20.86
2022-10-22T18:10:26.413Z,20.81
2022-10-22T18:15:29.974Z,20.83
2022-10-22T18:20:33.803Z,21.04
2022-10-22T18:25:41.936Z,21.04
2022-10-22T18:30:46.165Z,21.24
2022-10-22T18:35:49.680Z,21.25
2022-10-22T18:40:54.874Z,21.35
2022-10-22T18:45:58.387Z,21.34
2022-10-22T18:51:04.302Z,21.23
2022-10-22T18:56:11.364Z,21.52
2022-10-22T19:01:16.842Z,21.72
2022-10-22T19:06:26.898Z,21.80
2022-10-22T19:11:32.314Z,21.77
2022-10-22T19:16:36.587Z,21.80
2022-10-22T19:21:40.132Z,21.95
2022-10-22T19:26:45.698Z,21.96
2022-10-22T19:31:49.291Z,21.88
2022-10-22T19:36:52.801Z,21.82
2022-10-22T19:41:57.976Z,21.69
2022-10-22T19:47:01.517Z,21.51
2022-10-22T19:52:05.123Z,21.68
2022-10-22T19:57:10.299Z,21.70
2022-10-22T20:02:17.116Z,21.75
2022-10-22T20:07:20.674Z,21.80
2022-10-22T20:12:25.834Z,21.91
2022-10-22T20:17:29.460Z,22.01
2022-10-22T20:22:32.983Z,21.74
2022-10-22T20:27:39.450Z,21.65
2022-10-22T20:32:43.377Z,21.41
2022-10-22T20:37:47.575Z,21.39
2022-10-22T20:42:52.773Z,21.48
2022-10-22T20:48:02.704Z,21.42
2022-10-22T20:53:06.717Z,21.38
2022-10-22T20:58:11.903Z,21.24
2022-10-22T21:03:15.896Z,21.12
2022-10-22T21:08:19.418Z,21.12
2022-10-22T21:13:24.575Z,20.97
2022-10-22T21:18:28.136Z,20.94
2022-10-22T21:23:31.681Z,20.88
2022-10-22T21:28:37.963Z,20.72
2022-10-22T21:33:41.491Z,20.66
2022-10-22T21:38:45.037Z,20.66
2022-10-22T21:43:50.671Z,20.51
2022-10-22T21:48:54.983Z,20.48
2022-10-22T21:53:58.885Z,20.30
2022-10-22T21:59:05.043Z,20.10
2022-10-22T22:04:08.570Z,20.10
2022-10-22T22:09:12.473Z,19.93
2022-10-22T22:14:17.661Z,19.73
2022-10-22T22:19:21.430Z,19.85
2022-10-22T22:24:25.074Z,19.89
2022-10-22T22:29:30.250Z,19.85
2022-10-22T22:34:33.781Z,19.71
2022-10-22T22:39:37.340Z,19.69
2022-10-22T22:44:42.514Z,19.42
2022-10-22T22:49:46.049Z,19.47
2022-10-22T22:54:49.676Z,19.34
2022-10-22T22:59:54.828Z,19.23
2022-10-22T23:04:58.464Z,19.27
2022-10-22T23:10:01.992Z,19.17
2022-10-22T23:15:08.160Z,18.90
2022-10-22T23:20:12.018Z,19.09
2022-10-22T23:25:15.650Z,18.90
2022-10-22T23:30:20.964Z,18.49
2022-10-22T23:35:24.958Z,18.38
2022-10-22T23:40:28.480Z,18.20
2022-10-22T23:45:34.999Z,18.23
2022-10-22T23:50:38.576Z,17.89
2022-10-22T23:55:43.610Z,17.79
